• Join FlightAware (Why Join?)
  • Login
  • US Flag 
02:52AM EDT


 

Airport Tracker/Info


-or-


 

Live Flight TrackerFlight Track Log ✈ AWI3704 ✈ 16-Jun-2013 ✈ KPHL - KALB

Flight Track Log - Related Links

Times and Time Zones

All times are in EDT time to prevent confusion due to time zone crossing. See the AWI3704 flight status page for this flight to view local times or setup timezone preferences in your user account.

Time Position Orientation Groundspeed Altitude Reporting Facility
EDT Latitude Longitude Course Direction KTS MPH feet Rate Location/Type
09:55AM 39.8667 -75.2833 37° Northeast 169 194 800  Level Philadelphia TRACON
09:56AM 39.8167 -75.3333 218° Southwest 199 229 3,100 2,220 Climbing Philadelphia TRACON
09:57AM 39.8167 -74.9130 90° East  Level FlightAware Approximate
09:57AM 39.7667 -75.3167 166° South 233 268 5,800  Level Philadelphia TRACON
09:58AM 39.8039 -74.8026 105° East  Level FlightAware Approximate
09:58AM 39.7667 -75.2333 90° East 278 320 7,400  Level Philadelphia TRACON
09:59AM 39.7873 -74.6961 37° Northeast  Level FlightAware Approximate
10:00AM 39.8558 -74.6276 37° Northeast  Level FlightAware Approximate
10:00AM 39.7744 -75.0169 87° East 310 357 10,600  Level New York Center
10:01AM 39.7814 -74.8822 86° East 331 381 12,100 1,020 Climbing New York Center
10:02AM 39.7989 -74.7347 81° East 370 426 12,700 1,740 Climbing New York Center
10:03AM 39.8708 -74.6414 45° Northeast 358 412 15,700 2,520 Climbing New York Center
10:04AM 39.9483 -74.5644 37° Northeast 345 397 17,700 2,040 Climbing New York Center
10:05AM 40.0236 -74.4925 36° Northeast 330 380 19,800 1,440 Climbing New York Center
10:06AM 40.0989 -74.4153 38° Northeast 330 380 20,700 900 Climbing New York Center
10:07AM 40.1742 -74.3431 36° Northeast 330 380 21,700 960 Climbing New York Center
10:08AM 40.2517 -74.2628 38° Northeast 335 386 22,700 780 Climbing New York Center
10:09AM 40.3369 -74.1936 32° Northeast 346 398 23,300 600 Climbing New York Center
10:10AM 40.4264 -74.1244 30° Northeast 361 415 24,000 300 Climbing New York Center
10:11AM 40.5200 -74.0608 27° Northeast 367 422 24,000  Level New York Center
10:13AM 40.6939 -73.9400 28° Northeast 410 472 24,000  Level Boston Center
10:14AM 40.7908 -73.8600 32° Northeast 415 478 24,000  Level Boston Center
10:15AM 40.8819 -73.7522 42° Northeast 422 486 24,000 -60 Level Boston Center
10:16AM 40.9728 -73.6386 43° Northeast 432 497 23,900 -360 Descending Boston Center
10:17AM 41.0675 -73.5358 39° Northeast 432 497 23,300 -840 Descending Boston Center
10:18AM 41.1786 -73.4606 27° Northeast 438 504 22,300 -1,020 Descending Boston Center
10:19AM 41.2878 -73.3903 26° Northeast 438 504 21,300 -1,020 Descending Boston Center
10:20AM 41.3967 -73.3283 23° Northeast 427 491 20,300 -1,080 Descending Boston Center
10:21AM 41.5067 -73.3547 350° North 401 461 19,200 -1,080 Descending Boston Center
10:22AM 41.6192 -73.3869 348° North 397 457 18,200 -1,200 Descending Boston Center
10:23AM 41.7397 -73.4222 348° North 397 457 16,900 -1,380 Descending Boston Center
10:24AM 41.8375 -73.4489 349° North 397 457 15,500 -1,500 Descending Boston Center
10:24AM 41.9122 -73.4722 347° North 409 471 14,600 -1,440 Descending Boston Center
10:25AM 41.9581 -73.4814 352° North 397 457 14,100 -1,860 Descending Boston Center
10:26AM 42.0514 -73.5108 347° North 390 449 12,000 -1,500 Descending Boston Center
10:27AM 42.1761 -73.5439 349° North 360 414 11,000 -540 Descending Boston Center
10:28AM 42.2447 -73.5592 351° North 361 415 11,000 -480 Level Boston Center
10:29AM 42.3342 -73.5747 353° North 314 361 10,200 -1,320 Descending Boston Center
10:30AM 42.4425 -73.5964 352° North 284 327 8,000 -1,800 Descending Boston Center
10:31AM 42.4944 -73.6031 355° North 273 314 6,600 -1,920 Descending Boston Center
10:32AM 42.5922 -73.6331 347° North 274 315 4,200 -1,260 Descending Boston Center
10:33AM 42.6711 -73.6486 352° North 265 305 3,800 -660 Descending Boston Center
10:34AM 42.7147 -73.6636 346° North 233 268 3,100 -1,020 Descending Boston Center